Time;durP1;ratioP1;P1;durP2;ratioP2;P2;SDS_P1;SDS_P2;PMS_P1;PMS_P2;Temp;Humidity;BMP_temperature;BMP_pressure;BME280_temperature;BME280_humidity;BME280_pressure;Samples;Min_cycle;Max_cycle;Signal;HPM_P1;HPM_P2
2022/06/20 00:00:00;;;;;;;0.8;0.8;;;;;;;16.0;100.0;101110;;;;
2022/06/20 00:01:00;;;;;;;0.8;0.8;;;;;;;16.0;100.0;101110;;;;
2022/06/20 00:02:00;;;;;;;0.8;0.8;;;;;;;16.0;100.0;101100;;;;
2022/06/20 00:03:00;;;;;;;0.8;0.8;;;;;;;16.0;100.0;101100;;;;
2022/06/20 00:04:00;;;;;;;0.8;0.8;;;;;;;15.8;100.0;101100;;;;
2022/06/20 00:05:01;;;;;;;0.4;0.4;;;;;;;15.8;100.0;101100;;;;
2022/06/20 00:06:00;;;;;;;0.4;0.4;;;;;;;15.9;100.0;101090;;;;
2022/06/20 00:07:00;;;;;;;0.4;0.4;;;;;;;15.9;100.0;101090;;;;
2022/06/20 00:08:00;;;;;;;0.4;0.4;;;;;;;15.8;100.0;101100;;;;
2022/06/20 00:09:00;;;;;;;0.4;0.4;;;;;;;15.8;100.0;101100;;;;
2022/06/20 00:10:00;;;;;;;0.4;0.4;;;;;;;15.9;100.0;101090;;;;
2022/06/20 00:11:00;;;;;;;0.4;0.4;;;;;;;15.9;100.0;101090;;;;
2022/06/20 00:12:00;;;;;;;0.4;0.4;;;;;;;15.7;100.0;101100;;;;
2022/06/20 00:13:01;;;;;;;0.4;0.4;;;;;;;15.7;100.0;101100;;;;
2022/06/20 00:14:00;;;;;;;0.4;0.4;;;;;;;15.7;100.0;101100;;;;
2022/06/20 00:15:00;;;;;;;0.4;0.4;;;;;;;15.7;100.0;101100;;;;
2022/06/20 00:16:01;;;;;;;0.4;0.4;;;;;;;15.6;100.0;101100;;;;
2022/06/20 00:17:01;;;;;;;0.4;0.4;;;;;;;15.6;100.0;101100;;;;
2022/06/20 00:18:01;;;;;;;0.4;0.4;;;;;;;15.8;100.0;101110;;;;
2022/06/20 00:19:00;;;;;;;0.4;0.4;;;;;;;15.8;100.0;101110;;;;
2022/06/20 00:20:00;;;;;;;0.4;0.4;;;;;;;15.6;100.0;101100;;;;
2022/06/20 00:21:00;;;;;;;0.4;0.4;;;;;;;15.6;100.0;101100;;;;
2022/06/20 00:22:00;;;;;;;0.4;0.4;;;;;;;15.8;100.0;101100;;;;
2022/06/20 00:23:00;;;;;;;0.4;0.4;;;;;;;15.8;100.0;101100;;;;
2022/06/20 00:24:00;;;;;;;0.4;0.4;;;;;;;15.6;100.0;101080;;;;
2022/06/20 00:25:00;;;;;;;0.4;0.4;;;;;;;15.6;100.0;101080;;;;
2022/06/20 00:26:00;;;;;;;0.4;0.4;;;;;;;15.6;100.0;101080;;;;
2022/06/20 00:27:00;;;;;;;0.4;0.4;;;;;;;15.6;100.0;101080;;;;
2022/06/20 00:28:00;;;;;;;0.4;0.4;;;;;;;15.5;100.0;101080;;;;
2022/06/20 00:29:01;;;;;;;0.4;0.4;;;;;;;15.5;100.0;101080;;;;
2022/06/20 00:30:00;;;;;;;0.4;0.4;;;;;;;15.4;100.0;101080;;;;
2022/06/20 00:31:00;;;;;;;0.4;0.4;;;;;;;15.4;100.0;101080;;;;
2022/06/20 00:32:00;;;;;;;0.4;0.4;;;;;;;15.5;100.0;101090;;;;
2022/06/20 00:33:00;;;;;;;0.4;0.4;;;;;;;15.5;100.0;101090;;;;
2022/06/20 00:34:00;;;;;;;0.4;0.4;;;;;;;15.4;100.0;101100;;;;
2022/06/20 00:35:00;;;;;;;0.4;0.4;;;;;;;15.4;100.0;101100;;;;
2022/06/20 00:36:00;;;;;;;0.4;0.4;;;;;;;15.5;100.0;101110;;;;
2022/06/20 00:37:00;;;;;;;0.4;0.4;;;;;;;15.5;100.0;101110;;;;
2022/06/20 00:38:02;;;;;;;0.4;0.4;;;;;;;15.3;100.0;101120;;;;
2022/06/20 00:39:00;;;;;;;0.4;0.4;;;;;;;15.3;100.0;101120;;;;
2022/06/20 00:40:00;;;;;;;0.4;0.4;;;;;;;15.5;100.0;101140;;;;
2022/06/20 00:41:04;;;;;;;0.4;0.4;;;;;;;15.5;100.0;101140;;;;
2022/06/20 00:42:01;;;;;;;0.4;0.4;;;;;;;15.5;100.0;101140;;;;
2022/06/20 00:43:00;;;;;;;0.4;0.4;;;;;;;15.5;100.0;101140;;;;
2022/06/20 00:44:01;;;;;;;0.4;0.4;;;;;;;15.5;100.0;101160;;;;
2022/06/20 00:45:01;;;;;;;0.4;0.4;;;;;;;15.5;100.0;101160;;;;
2022/06/20 00:46:03;;;;;;;0.4;0.4;;;;;;;15.5;100.0;101160;;;;
2022/06/20 00:47:01;;;;;;;0.4;0.4;;;;;;;15.5;100.0;101160;;;;
2022/06/20 00:48:04;;;;;;;0.4;0.4;;;;;;;15.6;100.0;101160;;;;
2022/06/20 00:49:00;;;;;;;0.4;0.4;;;;;;;15.6;100.0;101160;;;;
2022/06/20 00:50:01;;;;;;;0.4;0.4;;;;;;;15.7;100.0;101160;;;;
2022/06/20 00:51:04;;;;;;;0.4;0.4;;;;;;;15.7;100.0;101160;;;;
2022/06/20 00:52:04;;;;;;;0.4;0.4;;;;;;;15.7;100.0;101180;;;;
2022/06/20 00:53:04;;;;;;;0.4;0.4;;;;;;;15.7;100.0;101180;;;;
2022/06/20 00:54:11;;;;;;;0.4;0.4;;;;;;;15.6;100.0;101210;;;;
2022/06/20 00:55:03;;;;;;;0.4;0.4;;;;;;;15.6;100.0;101210;;;;
2022/06/20 00:56:04;;;;;;;0.4;0.4;;;;;;;15.7;100.0;101210;;;;
2022/06/20 00:57:03;;;;;;;0.4;0.4;;;;;;;15.7;100.0;101210;;;;
2022/06/20 00:58:10;;;;;;;0.4;0.4;;;;;;;15.7;100.0;101230;;;;
2022/06/20 00:59:05;;;;;;;0.4;0.4;;;;;;;15.7;100.0;101230;;;;
2022/06/20 01:00:06;;;;;;;0.4;0.4;;;;;;;15.7;100.0;101250;;;;
2022/06/20 01:01:00;;;;;;;0.4;0.4;;;;;;;15.7;100.0;101250;;;;
2022/06/20 01:02:02;;;;;;;0.4;0.4;;;;;;;15.7;100.0;101260;;;;
2022/06/20 01:03:06;;;;;;;0.4;0.4;;;;;;;15.7;100.0;101260;;;;
2022/06/20 01:04:03;;;;;;;0.4;0.4;;;;;;;15.7;100.0;101270;;;;
2022/06/20 01:05:01;;;;;;;0.3;0.3;;;;;;;15.7;100.0;101270;;;;
2022/06/20 01:06:04;;;;;;;0.3;0.3;;;;;;;15.8;100.0;101290;;;;
2022/06/20 01:07:01;;;;;;;0.3;0.3;;;;;;;15.8;100.0;101290;;;;
2022/06/20 01:08:02;;;;;;;0.3;0.3;;;;;;;15.8;100.0;101300;;;;
2022/06/20 01:09:05;;;;;;;0.3;0.3;;;;;;;15.8;100.0;101300;;;;
2022/06/20 01:10:01;;;;;;;0.3;0.3;;;;;;;15.7;100.0;101300;;;;
2022/06/20 01:11:05;;;;;;;0.3;0.3;;;;;;;15.7;100.0;101300;;;;
2022/06/20 01:12:03;;;;;;;0.3;0.3;;;;;;;15.8;100.0;101300;;;;
2022/06/20 01:13:02;;;;;;;0.3;0.3;;;;;;;15.8;100.0;101300;;;;
2022/06/20 01:14:10;;;;;;;0.3;0.3;;;;;;;15.8;100.0;101290;;;;
2022/06/20 01:15:00;;;;;;;0.3;0.3;;;;;;;15.8;100.0;101290;;;;
2022/06/20 01:16:09;;;;;;;0.3;0.3;;;;;;;15.7;100.0;101280;;;;
2022/06/20 01:17:01;;;;;;;0.3;0.3;;;;;;;15.7;100.0;101280;;;;
2022/06/20 01:18:02;;;;;;;0.3;0.3;;;;;;;15.7;100.0;101260;;;;
2022/06/20 01:19:01;;;;;;;0.3;0.3;;;;;;;15.7;100.0;101260;;;;
2022/06/20 01:20:00;;;;;;;0.3;0.3;;;;;;;15.8;100.0;101250;;;;
2022/06/20 01:21:02;;;;;;;0.3;0.3;;;;;;;15.8;100.0;101250;;;;
2022/06/20 01:22:01;;;;;;;0.3;0.3;;;;;;;15.8;100.0;101250;;;;
2022/06/20 01:23:15;;;;;;;0.3;0.3;;;;;;;15.8;100.0;101250;;;;
2022/06/20 01:24:10;;;;;;;0.3;0.3;;;;;;;15.8;100.0;101250;;;;
2022/06/20 01:25:07;;;;;;;0.4;0.4;;;;;;;15.8;100.0;101250;;;;
2022/06/20 01:26:06;;;;;;;0.4;0.4;;;;;;;15.9;100.0;101240;;;;
2022/06/20 01:27:10;;;;;;;0.4;0.4;;;;;;;15.9;100.0;101240;;;;
2022/06/20 01:28:00;;;;;;;0.4;0.4;;;;;;;15.9;100.0;101240;;;;
2022/06/20 01:29:01;;;;;;;0.4;0.4;;;;;;;15.9;100.0;101240;;;;
2022/06/20 01:30:01;;;;;;;0.4;0.4;;;;;;;15.8;100.0;101250;;;;
2022/06/20 01:31:00;;;;;;;0.4;0.4;;;;;;;15.8;100.0;101250;;;;
2022/06/20 01:32:00;;;;;;;0.4;0.4;;;;;;;15.8;100.0;101250;;;;
2022/06/20 01:33:00;;;;;;;0.4;0.4;;;;;;;15.8;100.0;101250;;;;
2022/06/20 01:34:01;;;;;;;0.4;0.4;;;;;;;15.8;100.0;101240;;;;
2022/06/20 01:35:01;;;;;;;0.4;0.4;;;;;;;15.8;100.0;101240;;;;
2022/06/20 01:38:02;;;;;;;0.4;0.4;;;;;;;15.8;100.0;101210;;;;
2022/06/20 01:39:00;;;;;;;0.4;0.4;;;;;;;15.8;100.0;101210;;;;
2022/06/20 01:40:03;;;;;;;0.4;0.4;;;;;;;15.8;100.0;101210;;;;
2022/06/20 01:43:00;;;;;;;0.4;0.4;;;;;;;15.8;100.0;101210;;;;
2022/06/20 01:44:01;;;;;;;0.4;0.4;;;;;;;15.6;100.0;101200;;;;
2022/06/20 01:45:03;;;;;;;0.4;0.4;;;;;;;15.6;100.0;101200;;;;
2022/06/20 01:46:01;;;;;;;0.4;0.4;;;;;;;15.6;100.0;101200;;;;
2022/06/20 01:47:00;;;;;;;0.4;0.4;;;;;;;15.6;100.0;101200;;;;
2022/06/20 01:48:03;;;;;;;0.4;0.4;;;;;;;15.7;100.0;101210;;;;
2022/06/20 01:49:08;;;;;;;0.4;0.4;;;;;;;15.7;100.0;101210;;;;
2022/06/20 01:50:02;;;;;;;0.4;0.4;;;;;;;15.7;100.0;101210;;;;
2022/06/20 01:51:01;;;;;;;0.4;0.4;;;;;;;15.7;100.0;101210;;;;
2022/06/20 01:52:00;;;;;;;0.4;0.4;;;;;;;15.6;100.0;101200;;;;
2022/06/20 01:53:01;;;;;;;0.4;0.4;;;;;;;15.6;100.0;101200;;;;
2022/06/20 01:54:01;;;;;;;0.4;0.4;;;;;;;15.6;100.0;101190;;;;
2022/06/20 01:55:09;;;;;;;0.4;0.4;;;;;;;15.6;100.0;101190;;;;
2022/06/20 01:56:01;;;;;;;0.4;0.4;;;;;;;15.5;100.0;101180;;;;
2022/06/20 01:57:01;;;;;;;0.4;0.4;;;;;;;15.5;100.0;101180;;;;
2022/06/20 01:58:10;;;;;;;0.4;0.4;;;;;;;15.4;100.0;101170;;;;
2022/06/20 01:59:03;;;;;;;0.4;0.4;;;;;;;15.4;100.0;101170;;;;
2022/06/20 02:00:02;;;;;;;0.4;0.4;;;;;;;15.4;100.0;101170;;;;
2022/06/20 02:01:01;;;;;;;0.4;0.4;;;;;;;15.4;100.0;101170;;;;
2022/06/20 02:02:00;;;;;;;0.4;0.4;;;;;;;15.4;100.0;101160;;;;
2022/06/20 02:03:04;;;;;;;0.4;0.4;;;;;;;15.4;100.0;101160;;;;
2022/06/20 02:04:01;;;;;;;0.4;0.4;;;;;;;15.3;100.0;101160;;;;
2022/06/20 02:05:01;;;;;;;0.7;0.7;;;;;;;15.3;100.0;101160;;;;
2022/06/20 02:06:01;;;;;;;0.7;0.7;;;;;;;15.2;100.0;101160;;;;
2022/06/20 02:07:01;;;;;;;0.7;0.7;;;;;;;15.2;100.0;101160;;;;
2022/06/20 02:08:02;;;;;;;0.7;0.7;;;;;;;15.3;100.0;101160;;;;
2022/06/20 02:09:00;;;;;;;0.7;0.7;;;;;;;15.3;100.0;101160;;;;
2022/06/20 02:10:01;;;;;;;0.7;0.7;;;;;;;15.3;100.0;101150;;;;
2022/06/20 02:11:01;;;;;;;0.7;0.7;;;;;;;15.3;100.0;101150;;;;
2022/06/20 02:12:01;;;;;;;0.7;0.7;;;;;;;15.3;100.0;101150;;;;
2022/06/20 02:13:01;;;;;;;0.7;0.7;;;;;;;15.3;100.0;101150;;;;
2022/06/20 02:14:03;;;;;;;0.7;0.7;;;;;;;15.2;100.0;101150;;;;
2022/06/20 02:15:00;;;;;;;0.7;0.7;;;;;;;15.2;100.0;101150;;;;
2022/06/20 02:16:03;;;;;;;0.7;0.7;;;;;;;15.2;100.0;101160;;;;
2022/06/20 02:17:03;;;;;;;0.7;0.7;;;;;;;15.2;100.0;101160;;;;
2022/06/20 02:18:02;;;;;;;0.7;0.7;;;;;;;15.2;100.0;101150;;;;
2022/06/20 02:19:02;;;;;;;0.7;0.7;;;;;;;15.2;100.0;101150;;;;
2022/06/20 02:20:02;;;;;;;0.7;0.7;;;;;;;15.1;100.0;101150;;;;
2022/06/20 02:21:01;;;;;;;0.7;0.7;;;;;;;15.1;100.0;101150;;;;
2022/06/20 02:22:01;;;;;;;0.7;0.7;;;;;;;15.2;100.0;101150;;;;
2022/06/20 02:23:01;;;;;;;0.7;0.7;;;;;;;15.2;100.0;101150;;;;
2022/06/20 02:24:02;;;;;;;0.7;0.7;;;;;;;15.2;100.0;101150;;;;
2022/06/20 02:25:03;;;;;;;0.4;0.4;;;;;;;15.2;100.0;101150;;;;
2022/06/20 02:26:01;;;;;;;0.4;0.4;;;;;;;15.2;100.0;101140;;;;
2022/06/20 02:27:01;;;;;;;0.4;0.4;;;;;;;15.2;100.0;101140;;;;
2022/06/20 02:28:10;;;;;;;0.4;0.4;;;;;;;15.3;100.0;101130;;;;
2022/06/20 02:29:04;;;;;;;0.4;0.4;;;;;;;15.3;100.0;101130;;;;
2022/06/20 02:30:01;;;;;;;0.4;0.4;;;;;;;15.3;100.0;101120;;;;
2022/06/20 02:31:00;;;;;;;0.4;0.4;;;;;;;15.3;100.0;101120;;;;
2022/06/20 02:32:06;;;;;;;0.4;0.4;;;;;;;15.3;100.0;101120;;;;
2022/06/20 02:33:04;;;;;;;0.4;0.4;;;;;;;15.3;100.0;101120;;;;
2022/06/20 02:34:01;;;;;;;0.4;0.4;;;;;;;15.2;100.0;101110;;;;
2022/06/20 02:35:01;;;;;;;0.4;0.4;;;;;;;15.2;100.0;101110;;;;
2022/06/20 02:36:02;;;;;;;0.4;0.4;;;;;;;15.2;100.0;101100;;;;
2022/06/20 02:37:02;;;;;;;0.4;0.4;;;;;;;15.2;100.0;101100;;;;
2022/06/20 02:38:00;;;;;;;0.4;0.4;;;;;;;15.0;100.0;101100;;;;
2022/06/20 02:39:00;;;;;;;0.4;0.4;;;;;;;15.0;100.0;101100;;;;
2022/06/20 02:40:01;;;;;;;0.4;0.4;;;;;;;15.0;100.0;101100;;;;
2022/06/20 02:41:00;;;;;;;0.4;0.4;;;;;;;15.0;100.0;101100;;;;
2022/06/20 02:42:03;;;;;;;0.4;0.4;;;;;;;15.2;100.0;101100;;;;
2022/06/20 02:43:04;;;;;;;0.4;0.4;;;;;;;15.2;100.0;101100;;;;
2022/06/20 02:44:05;;;;;;;0.4;0.4;;;;;;;15.0;100.0;101100;;;;
2022/06/20 02:45:01;;;;;;;0.4;0.4;;;;;;;15.0;100.0;101100;;;;
2022/06/20 02:46:01;;;;;;;0.4;0.4;;;;;;;14.9;100.0;101100;;;;
2022/06/20 02:47:03;;;;;;;0.4;0.4;;;;;;;14.9;100.0;101100;;;;
2022/06/20 02:48:04;;;;;;;0.4;0.4;;;;;;;15.0;100.0;101100;;;;
2022/06/20 02:49:02;;;;;;;0.4;0.4;;;;;;;15.0;100.0;101100;;;;
2022/06/20 02:50:02;;;;;;;0.4;0.4;;;;;;;14.9;100.0;101090;;;;
2022/06/20 02:51:02;;;;;;;0.4;0.4;;;;;;;14.9;100.0;101090;;;;
2022/06/20 02:52:01;;;;;;;0.4;0.4;;;;;;;15.0;100.0;101100;;;;
2022/06/20 02:53:02;;;;;;;0.4;0.4;;;;;;;15.0;100.0;101100;;;;
2022/06/20 02:54:01;;;;;;;0.4;0.4;;;;;;;14.9;100.0;101100;;;;
2022/06/20 02:55:00;;;;;;;0.4;0.4;;;;;;;14.9;100.0;101100;;;;
2022/06/20 02:56:00;;;;;;;0.4;0.4;;;;;;;15.0;100.0;101100;;;;
2022/06/20 02:57:02;;;;;;;0.4;0.4;;;;;;;15.0;100.0;101100;;;;
2022/06/20 02:58:03;;;;;;;0.4;0.4;;;;;;;14.9;100.0;101090;;;;
2022/06/20 02:59:03;;;;;;;0.4;0.4;;;;;;;14.9;100.0;101090;;;;
2022/06/20 03:00:03;;;;;;;0.4;0.4;;;;;;;14.9;100.0;101080;;;;
2022/06/20 03:01:04;;;;;;;0.4;0.4;;;;;;;14.9;100.0;101080;;;;
2022/06/20 03:02:04;;;;;;;0.4;0.4;;;;;;;14.9;100.0;101070;;;;
2022/06/20 03:03:02;;;;;;;0.4;0.4;;;;;;;14.9;100.0;101070;;;;
2022/06/20 03:04:00;;;;;;;0.4;0.4;;;;;;;14.9;100.0;101060;;;;
2022/06/20 03:05:01;;;;;;;0.4;0.4;;;;;;;14.9;100.0;101060;;;;
2022/06/20 03:06:00;;;;;;;0.4;0.4;;;;;;;14.8;100.0;101060;;;;
2022/06/20 03:07:01;;;;;;;0.4;0.4;;;;;;;14.8;100.0;101060;;;;
2022/06/20 03:08:00;;;;;;;0.4;0.4;;;;;;;14.8;100.0;101060;;;;
2022/06/20 03:09:00;;;;;;;0.4;0.4;;;;;;;14.8;100.0;101060;;;;
2022/06/20 03:10:06;;;;;;;0.4;0.4;;;;;;;14.8;100.0;101070;;;;
2022/06/20 03:11:04;;;;;;;0.4;0.4;;;;;;;14.8;100.0;101070;;;;
2022/06/20 03:12:02;;;;;;;0.4;0.4;;;;;;;14.9;100.0;101060;;;;
2022/06/20 03:13:00;;;;;;;0.4;0.4;;;;;;;14.9;100.0;101060;;;;
2022/06/20 03:14:01;;;;;;;0.4;0.4;;;;;;;14.8;100.0;101050;;;;
2022/06/20 03:15:01;;;;;;;0.4;0.4;;;;;;;14.8;100.0;101050;;;;
2022/06/20 03:16:02;;;;;;;0.4;0.4;;;;;;;14.8;100.0;101040;;;;
2022/06/20 03:17:01;;;;;;;0.4;0.4;;;;;;;14.8;100.0;101040;;;;
2022/06/20 03:18:00;;;;;;;0.4;0.4;;;;;;;14.9;100.0;101050;;;;
2022/06/20 03:19:01;;;;;;;0.4;0.4;;;;;;;14.9;100.0;101050;;;;
2022/06/20 03:20:03;;;;;;;0.4;0.4;;;;;;;14.9;100.0;101050;;;;
2022/06/20 03:21:00;;;;;;;0.4;0.4;;;;;;;14.9;100.0;101050;;;;
2022/06/20 03:22:02;;;;;;;0.4;0.4;;;;;;;14.9;100.0;101040;;;;
2022/06/20 03:23:05;;;;;;;0.4;0.4;;;;;;;14.9;100.0;101040;;;;
2022/06/20 03:24:01;;;;;;;0.4;0.4;;;;;;;14.9;100.0;101040;;;;
2022/06/20 03:25:00;;;;;;;0.5;0.5;;;;;;;14.9;100.0;101040;;;;
2022/06/20 03:26:02;;;;;;;0.5;0.5;;;;;;;14.9;100.0;101040;;;;
2022/06/20 03:27:01;;;;;;;0.5;0.5;;;;;;;14.9;100.0;101040;;;;
2022/06/20 03:28:10;;;;;;;0.5;0.5;;;;;;;14.9;100.0;101040;;;;
2022/06/20 03:29:00;;;;;;;0.5;0.5;;;;;;;14.9;100.0;101040;;;;
2022/06/20 03:30:04;;;;;;;0.5;0.5;;;;;;;14.9;100.0;101040;;;;
2022/06/20 03:31:01;;;;;;;0.5;0.5;;;;;;;14.9;100.0;101040;;;;
2022/06/20 03:32:00;;;;;;;0.5;0.5;;;;;;;15.0;100.0;101060;;;;
2022/06/20 03:33:01;;;;;;;0.5;0.5;;;;;;;15.0;100.0;101060;;;;
2022/06/20 03:34:00;;;;;;;0.5;0.5;;;;;;;15.0;100.0;101060;;;;
2022/06/20 03:35:00;;;;;;;0.5;0.5;;;;;;;15.0;100.0;101060;;;;
2022/06/20 03:36:10;;;;;;;0.5;0.5;;;;;;;14.8;100.0;101060;;;;
2022/06/20 03:37:02;;;;;;;0.5;0.5;;;;;;;14.8;100.0;101060;;;;
2022/06/20 03:38:02;;;;;;;0.5;0.5;;;;;;;14.9;100.0;101060;;;;
2022/06/20 03:39:00;;;;;;;0.5;0.5;;;;;;;14.9;100.0;101060;;;;
2022/06/20 03:40:00;;;;;;;0.5;0.5;;;;;;;14.9;100.0;101070;;;;
2022/06/20 03:41:00;;;;;;;0.5;0.5;;;;;;;14.9;100.0;101070;;;;
2022/06/20 03:42:00;;;;;;;0.5;0.5;;;;;;;14.9;100.0;101080;;;;
2022/06/20 03:43:01;;;;;;;0.5;0.5;;;;;;;14.9;100.0;101080;;;;
2022/06/20 03:44:03;;;;;;;0.5;0.5;;;;;;;15.0;100.0;101090;;;;
2022/06/20 03:45:02;;;;;;;0.4;0.4;;;;;;;15.0;100.0;101090;;;;
2022/06/20 03:46:02;;;;;;;0.4;0.4;;;;;;;15.0;100.0;101100;;;;
2022/06/20 03:47:04;;;;;;;0.4;0.4;;;;;;;15.0;100.0;101100;;;;
2022/06/20 03:48:17;;;;;;;0.4;0.4;;;;;;;15.0;100.0;101100;;;;
2022/06/20 03:49:03;;;;;;;0.4;0.4;;;;;;;15.0;100.0;101100;;;;
2022/06/20 03:50:02;;;;;;;0.4;0.4;;;;;;;15.1;100.0;101090;;;;
2022/06/20 03:51:03;;;;;;;0.4;0.4;;;;;;;15.1;100.0;101090;;;;
2022/06/20 03:52:04;;;;;;;0.4;0.4;;;;;;;14.9;100.0;101100;;;;
2022/06/20 03:53:06;;;;;;;0.4;0.4;;;;;;;14.9;100.0;101100;;;;
2022/06/20 03:54:05;;;;;;;0.4;0.4;;;;;;;15.0;100.0;101090;;;;
2022/06/20 03:55:04;;;;;;;0.4;0.4;;;;;;;15.0;100.0;101090;;;;
2022/06/20 03:56:06;;;;;;;0.4;0.4;;;;;;;14.9;100.0;101110;;;;
2022/06/20 03:57:02;;;;;;;0.4;0.4;;;;;;;14.9;100.0;101110;;;;
2022/06/20 03:58:06;;;;;;;0.4;0.4;;;;;;;15.0;100.0;101110;;;;
2022/06/20 03:59:04;;;;;;;0.4;0.4;;;;;;;15.0;100.0;101110;;;;
2022/06/20 04:00:04;;;;;;;0.4;0.4;;;;;;;15.1;100.0;101130;;;;
2022/06/20 04:01:03;;;;;;;0.4;0.4;;;;;;;15.1;100.0;101130;;;;
2022/06/20 04:02:06;;;;;;;0.4;0.4;;;;;;;15.1;100.0;101130;;;;
2022/06/20 04:03:06;;;;;;;0.4;0.4;;;;;;;15.1;100.0;101130;;;;
2022/06/20 04:04:02;;;;;;;0.4;0.4;;;;;;;15.2;100.0;101130;;;;
2022/06/20 04:05:01;;;;;;;0.3;0.3;;;;;;;15.2;100.0;101130;;;;
2022/06/20 04:06:10;;;;;;;0.3;0.3;;;;;;;15.2;100.0;101130;;;;
2022/06/20 04:07:02;;;;;;;0.3;0.3;;;;;;;15.2;100.0;101130;;;;
2022/06/20 04:08:10;;;;;;;0.3;0.3;;;;;;;15.3;100.0;101130;;;;
2022/06/20 04:11:01;;;;;;;0.3;0.3;;;;;;;15.2;100.0;101140;;;;
2022/06/20 04:12:10;;;;;;;0.3;0.3;;;;;;;15.3;100.0;101140;;;;
2022/06/20 04:13:02;;;;;;;0.3;0.3;;;;;;;15.3;100.0;101140;;;;
2022/06/20 04:14:04;;;;;;;0.3;0.3;;;;;;;15.3;100.0;101140;;;;
2022/06/20 04:15:04;;;;;;;0.3;0.3;;;;;;;15.3;100.0;101140;;;;
2022/06/20 04:16:04;;;;;;;0.3;0.3;;;;;;;15.3;100.0;101140;;;;
2022/06/20 04:18:27;;;;;;;0.3;0.3;;;;;;;15.3;100.0;101140;;;;
2022/06/20 04:19:10;;;;;;;0.3;0.3;;;;;;;15.2;100.0;101140;;;;
2022/06/20 04:20:01;;;;;;;0.3;0.3;;;;;;;15.3;100.0;101140;;;;
2022/06/20 04:21:05;;;;;;;0.3;0.3;;;;;;;15.3;100.0;101140;;;;
2022/06/20 04:22:04;;;;;;;0.3;0.3;;;;;;;15.4;100.0;101140;;;;
2022/06/20 04:23:03;;;;;;;0.3;0.3;;;;;;;15.4;100.0;101140;;;;
2022/06/20 04:24:05;;;;;;;0.3;0.3;;;;;;;15.4;100.0;101150;;;;
2022/06/20 04:25:03;;;;;;;0.3;0.3;;;;;;;15.4;100.0;101150;;;;
2022/06/20 04:26:10;;;;;;;0.3;0.3;;;;;;;15.5;100.0;101160;;;;
2022/06/20 04:27:06;;;;;;;0.3;0.3;;;;;;;15.5;100.0;101160;;;;
2022/06/20 04:28:10;;;;;;;0.3;0.3;;;;;;;15.4;100.0;101160;;;;
2022/06/20 04:29:00;;;;;;;0.3;0.3;;;;;;;15.4;100.0;101160;;;;
2022/06/20 04:30:03;;;;;;;0.3;0.3;;;;;;;15.5;100.0;101160;;;;
2022/06/20 04:31:10;;;;;;;0.3;0.3;;;;;;;15.5;100.0;101160;;;;
2022/06/20 04:32:04;;;;;;;0.3;0.3;;;;;;;15.5;100.0;101160;;;;
2022/06/20 04:33:03;;;;;;;0.3;0.3;;;;;;;15.5;100.0;101160;;;;
2022/06/20 04:34:03;;;;;;;0.3;0.3;;;;;;;15.6;100.0;101160;;;;
2022/06/20 04:35:10;;;;;;;0.3;0.3;;;;;;;15.6;100.0;101160;;;;
2022/06/20 04:36:11;;;;;;;0.3;0.3;;;;;;;15.6;100.0;101160;;;;
2022/06/20 04:37:10;;;;;;;0.3;0.3;;;;;;;15.6;100.0;101160;;;;
2022/06/20 04:38:05;;;;;;;0.3;0.3;;;;;;;15.6;100.0;101170;;;;
2022/06/20 04:39:05;;;;;;;0.3;0.3;;;;;;;15.6;100.0;101170;;;;
2022/06/20 04:40:04;;;;;;;0.3;0.3;;;;;;;15.6;100.0;101170;;;;
2022/06/20 04:41:04;;;;;;;0.3;0.3;;;;;;;15.6;100.0;101170;;;;
2022/06/20 04:42:05;;;;;;;0.3;0.3;;;;;;;15.6;100.0;101170;;;;
2022/06/20 04:43:10;;;;;;;0.3;0.3;;;;;;;15.6;100.0;101170;;;;
2022/06/20 04:44:04;;;;;;;0.4;0.4;;;;;;;15.7;100.0;101170;;;;
2022/06/20 04:45:02;;;;;;;0.4;0.4;;;;;;;15.7;100.0;101170;;;;
2022/06/20 04:46:00;;;;;;;0.4;0.4;;;;;;;15.8;100.0;101180;;;;
2022/06/20 04:47:10;;;;;;;0.4;0.4;;;;;;;15.8;100.0;101180;;;;
2022/06/20 04:48:04;;;;;;;0.4;0.4;;;;;;;15.8;100.0;101170;;;;
2022/06/20 04:49:00;;;;;;;0.4;0.4;;;;;;;15.8;100.0;101170;;;;
2022/06/20 04:50:00;;;;;;;0.4;0.4;;;;;;;15.7;100.0;101180;;;;
2022/06/20 04:51:01;;;;;;;0.4;0.4;;;;;;;15.7;100.0;101180;;;;
2022/06/20 04:52:00;;;;;;;0.4;0.4;;;;;;;15.8;100.0;101180;;;;
2022/06/20 04:53:05;;;;;;;0.4;0.4;;;;;;;15.8;100.0;101180;;;;
2022/06/20 04:54:01;;;;;;;0.4;0.4;;;;;;;15.8;100.0;101190;;;;
2022/06/20 04:55:00;;;;;;;0.4;0.4;;;;;;;15.8;100.0;101190;;;;
2022/06/20 04:56:02;;;;;;;0.4;0.4;;;;;;;15.8;100.0;101190;;;;
2022/06/20 04:57:01;;;;;;;0.4;0.4;;;;;;;15.8;100.0;101190;;;;
2022/06/20 04:58:01;;;;;;;0.4;0.4;;;;;;;15.7;100.0;101190;;;;
2022/06/20 04:59:02;;;;;;;0.4;0.4;;;;;;;15.7;100.0;101190;;;;
2022/06/20 05:00:03;;;;;;;0.4;0.4;;;;;;;15.8;100.0;101200;;;;
2022/06/20 05:01:01;;;;;;;0.4;0.4;;;;;;;15.8;100.0;101200;;;;
2022/06/20 05:02:04;;;;;;;0.4;0.4;;;;;;;15.7;100.0;101200;;;;
2022/06/20 05:03:00;;;;;;;0.4;0.4;;;;;;;15.7;100.0;101200;;;;
2022/06/20 05:04:07;;;;;;;0.4;0.4;;;;;;;15.8;100.0;101200;;;;
2022/06/20 05:05:04;;;;;;;0.4;0.4;;;;;;;15.8;100.0;101200;;;;
2022/06/20 05:06:01;;;;;;;0.4;0.4;;;;;;;15.8;100.0;101200;;;;
2022/06/20 05:07:03;;;;;;;0.4;0.4;;;;;;;15.8;100.0;101200;;;;
2022/06/20 05:08:01;;;;;;;0.4;0.4;;;;;;;15.9;100.0;101190;;;;
2022/06/20 05:09:10;;;;;;;0.4;0.4;;;;;;;15.9;100.0;101190;;;;
2022/06/20 05:10:11;;;;;;;0.4;0.4;;;;;;;15.8;100.0;101200;;;;
2022/06/20 05:11:09;;;;;;;0.4;0.4;;;;;;;15.8;100.0;101200;;;;
2022/06/20 05:12:04;;;;;;;0.4;0.4;;;;;;;15.9;100.0;101200;;;;
2022/06/20 05:13:07;;;;;;;0.4;0.4;;;;;;;15.9;100.0;101200;;;;
2022/06/20 05:14:00;;;;;;;0.4;0.4;;;;;;;15.9;100.0;101190;;;;
2022/06/20 05:15:05;;;;;;;0.4;0.4;;;;;;;15.9;100.0;101190;;;;
2022/06/20 05:16:00;;;;;;;0.4;0.4;;;;;;;15.9;100.0;101200;;;;
2022/06/20 05:17:01;;;;;;;0.4;0.4;;;;;;;15.9;100.0;101200;;;;
2022/06/20 05:18:04;;;;;;;0.4;0.4;;;;;;;15.9;100.0;101200;;;;
2022/06/20 05:19:03;;;;;;;0.4;0.4;;;;;;;15.9;100.0;101200;;;;
2022/06/20 05:20:02;;;;;;;0.4;0.4;;;;;;;16.0;100.0;101200;;;;
2022/06/20 05:21:08;;;;;;;0.4;0.4;;;;;;;16.0;100.0;101200;;;;
2022/06/20 05:22:02;;;;;;;0.4;0.4;;;;;;;16.0;100.0;101200;;;;
2022/06/20 05:23:03;;;;;;;0.4;0.4;;;;;;;16.0;100.0;101200;;;;
2022/06/20 05:24:04;;;;;;;0.7;0.7;;;;;;;16.0;100.0;101210;;;;
2022/06/20 05:25:03;;;;;;;0.7;0.7;;;;;;;16.0;100.0;101210;;;;
2022/06/20 05:26:01;;;;;;;0.7;0.7;;;;;;;16.2;100.0;101210;;;;
2022/06/20 05:27:06;;;;;;;0.7;0.7;;;;;;;16.2;100.0;101210;;;;
2022/06/20 05:28:02;;;;;;;0.7;0.7;;;;;;;16.1;100.0;101210;;;;
2022/06/20 05:29:03;;;;;;;0.7;0.7;;;;;;;16.1;100.0;101210;;;;
2022/06/20 05:30:01;;;;;;;0.7;0.7;;;;;;;16.1;100.0;101200;;;;
2022/06/20 05:31:01;;;;;;;0.7;0.7;;;;;;;16.1;100.0;101200;;;;
2022/06/20 05:32:02;;;;;;;0.7;0.7;;;;;;;16.2;100.0;101210;;;;
2022/06/20 05:33:04;;;;;;;0.7;0.7;;;;;;;16.2;100.0;101210;;;;
2022/06/20 05:34:06;;;;;;;0.7;0.7;;;;;;;16.2;100.0;101210;;;;
2022/06/20 05:35:05;;;;;;;0.7;0.7;;;;;;;16.2;100.0;101210;;;;
2022/06/20 05:36:02;;;;;;;0.7;0.7;;;;;;;16.3;100.0;101220;;;;
2022/06/20 05:37:00;;;;;;;0.7;0.7;;;;;;;16.3;100.0;101220;;;;
2022/06/20 05:38:03;;;;;;;0.7;0.7;;;;;;;16.2;100.0;101220;;;;
2022/06/20 05:39:04;;;;;;;0.7;0.7;;;;;;;16.2;100.0;101220;;;;
2022/06/20 05:40:04;;;;;;;0.7;0.7;;;;;;;16.3;100.0;101220;;;;
2022/06/20 05:41:02;;;;;;;0.7;0.7;;;;;;;16.3;100.0;101220;;;;
2022/06/20 05:42:00;;;;;;;0.7;0.7;;;;;;;16.3;100.0;101220;;;;
2022/06/20 05:43:00;;;;;;;0.7;0.7;;;;;;;16.3;100.0;101220;;;;
2022/06/20 05:44:00;;;;;;;0.3;0.3;;;;;;;16.3;100.0;101220;;;;
2022/06/20 05:45:01;;;;;;;0.3;0.3;;;;;;;16.3;100.0;101220;;;;
2022/06/20 05:46:00;;;;;;;0.3;0.3;;;;;;;16.4;100.0;101220;;;;
2022/06/20 05:47:03;;;;;;;0.3;0.3;;;;;;;16.4;100.0;101220;;;;
2022/06/20 05:48:02;;;;;;;0.3;0.3;;;;;;;16.4;100.0;101210;;;;
2022/06/20 05:49:03;;;;;;;0.3;0.3;;;;;;;16.4;100.0;101210;;;;
2022/06/20 05:50:10;;;;;;;0.3;0.3;;;;;;;16.5;100.0;101220;;;;
2022/06/20 05:51:01;;;;;;;0.3;0.3;;;;;;;16.5;100.0;101220;;;;
2022/06/20 05:52:01;;;;;;;0.3;0.3;;;;;;;16.5;100.0;101210;;;;
2022/06/20 05:53:03;;;;;;;0.3;0.3;;;;;;;16.5;100.0;101210;;;;
2022/06/20 05:54:03;;;;;;;0.3;0.3;;;;;;;16.6;100.0;101210;;;;
2022/06/20 05:55:10;;;;;;;0.3;0.3;;;;;;;16.6;100.0;101210;;;;
2022/06/20 05:56:08;;;;;;;0.3;0.3;;;;;;;16.6;100.0;101210;;;;
2022/06/20 05:57:05;;;;;;;0.3;0.3;;;;;;;16.6;100.0;101210;;;;
2022/06/20 05:58:00;;;;;;;0.3;0.3;;;;;;;16.7;100.0;101210;;;;
2022/06/20 05:59:01;;;;;;;0.3;0.3;;;;;;;16.7;100.0;101210;;;;
2022/06/20 06:00:06;;;;;;;0.3;0.3;;;;;;;16.7;100.0;101210;;;;
2022/06/20 06:01:03;;;;;;;0.3;0.3;;;;;;;16.7;100.0;101210;;;;
2022/06/20 06:02:09;;;;;;;0.3;0.3;;;;;;;16.7;100.0;101210;;;;
2022/06/20 06:03:10;;;;;;;0.3;0.3;;;;;;;16.7;100.0;101210;;;;
2022/06/20 06:04:00;;;;;;;0.3;0.3;;;;;;;16.7;100.0;101210;;;;
2022/06/20 06:05:05;;;;;;;0.3;0.3;;;;;;;16.7;100.0;101210;;;;
2022/06/20 06:06:02;;;;;;;0.3;0.3;;;;;;;16.8;100.0;101210;;;;
2022/06/20 06:07:04;;;;;;;0.3;0.3;;;;;;;16.8;100.0;101210;;;;
2022/06/20 06:08:03;;;;;;;0.3;0.3;;;;;;;16.7;100.0;101210;;;;
2022/06/20 06:09:04;;;;;;;0.3;0.3;;;;;;;16.7;100.0;101210;;;;
2022/06/20 06:10:05;;;;;;;0.3;0.3;;;;;;;16.8;100.0;101220;;;;
2022/06/20 06:11:10;;;;;;;0.3;0.3;;;;;;;16.8;100.0;101220;;;;
2022/06/20 06:12:04;;;;;;;0.3;0.3;;;;;;;16.8;100.0;101220;;;;
2022/06/20 06:13:11;;;;;;;0.3;0.3;;;;;;;16.8;100.0;101220;;;;
2022/06/20 06:14:01;;;;;;;0.3;0.3;;;;;;;17.0;100.0;101230;;;;
2022/06/20 06:15:10;;;;;;;0.3;0.3;;;;;;;17.0;100.0;101230;;;;
2022/06/20 06:17:20;;;;;;;0.3;0.3;;;;;;;17.2;100.0;101230;;;;
2022/06/20 06:18:03;;;;;;;0.3;0.3;;;;;;;17.2;100.0;101230;;;;
2022/06/20 06:19:01;;;;;;;0.3;0.3;;;;;;;17.2;100.0;101230;;;;
2022/06/20 06:20:01;;;;;;;0.3;0.3;;;;;;;17.2;100.0;101230;;;;
2022/06/20 06:21:00;;;;;;;0.3;0.3;;;;;;;17.2;100.0;101230;;;;
2022/06/20 06:22:05;;;;;;;0.3;0.3;;;;;;;17.2;100.0;101240;;;;
2022/06/20 06:23:05;;;;;;;0.3;0.3;;;;;;;17.2;100.0;101240;;;;
2022/06/20 06:24:01;;;;;;;0.7;0.7;;;;;;;17.2;100.0;101240;;;;
2022/06/20 06:25:03;;;;;;;0.7;0.7;;;;;;;17.2;100.0;101240;;;;
2022/06/20 06:26:00;;;;;;;0.7;0.7;;;;;;;17.3;100.0;101230;;;;
2022/06/20 06:27:01;;;;;;;0.7;0.7;;;;;;;17.3;100.0;101230;;;;
2022/06/20 06:28:02;;;;;;;0.7;0.7;;;;;;;17.3;100.0;101240;;;;
2022/06/20 06:29:00;;;;;;;0.7;0.7;;;;;;;17.3;100.0;101240;;;;
2022/06/20 06:30:05;;;;;;;0.7;0.7;;;;;;;17.3;100.0;101240;;;;